Time;durP1;ratioP1;P1;durP2;ratioP2;P2;SDS_P1;SDS_P2;PMS_P1;PMS_P2;Temp;Humidity;BMP_temperature;BMP_pressure;BME280_temperature;BME280_humidity;BME280_pressure;Samples;Min_cycle;Max_cycle;Signal;HPM_P1;HPM_P2
2023/08/30 00:02:39;;;;;;;3.17;1.70;;;15.40;99.90;;;;;;4840043;29;20124;-69
2023/08/30 00:05:27;;;;;;;2.75;1.40;;;15.40;99.90;;;;;;4844527;29;20033;-69
2023/08/30 00:08:18;;;;;;;3.35;1.98;;;15.40;99.90;;;;;;4822303;29;20034;-69
2023/08/30 00:11:04;;;;;;;2.87;1.57;;;15.40;99.90;;;;;;4838264;29;20403;-70
2023/08/30 00:13:50;;;;;;;3.08;1.48;;;15.60;99.90;;;;;;4847321;29;20209;-69
2023/08/30 00:16:38;;;;;;;3.17;1.85;;;15.60;99.90;;;;;;4838330;29;20455;-69
2023/08/30 00:19:24;;;;;;;3.67;1.50;;;15.60;99.90;;;;;;4833165;29;20070;-68
2023/08/30 00:22:10;;;;;;;3.05;1.58;;;15.60;99.90;;;;;;4841345;29;20502;-70
2023/08/30 00:24:56;;;;;;;2.15;1.50;;;15.60;99.90;;;;;;4841257;29;20130;-69
2023/08/30 00:27:42;;;;;;;3.38;1.85;;;15.60;99.90;;;;;;4841067;29;20037;-69
2023/08/30 00:30:28;;;;;;;2.15;1.48;;;15.50;99.90;;;;;;4833932;29;20034;-69
2023/08/30 00:33:14;;;;;;;2.70;1.65;;;15.40;99.90;;;;;;4839983;29;20397;-69
2023/08/30 00:36:00;;;;;;;1.95;1.20;;;15.50;99.90;;;;;;4840578;29;20506;-69
2023/08/30 00:38:46;;;;;;;4.68;1.95;;;15.40;99.90;;;;;;4837892;29;20525;-69
2023/08/30 00:41:32;;;;;;;5.22;1.95;;;15.50;99.90;;;;;;4847559;29;20071;-69
2023/08/30 00:44:18;;;;;;;2.55;1.52;;;15.40;99.90;;;;;;4844302;29;20045;-69
2023/08/30 00:47:04;;;;;;;3.83;1.85;;;15.50;99.90;;;;;;4839347;29;20038;-68
2023/08/30 00:49:50;;;;;;;4.07;1.70;;;15.40;99.90;;;;;;4838726;29;20030;-69
2023/08/30 00:52:36;;;;;;;3.63;1.98;;;15.30;99.90;;;;;;4817520;29;20073;-69
2023/08/30 00:55:23;;;;;;;2.47;1.60;;;15.20;99.90;;;;;;4833466;29;20126;-68
2023/08/30 00:58:10;;;;;;;2.88;1.52;;;15.20;99.90;;;;;;4838535;29;20430;-68
2023/08/30 01:00:57;;;;;;;3.10;1.58;;;15.20;99.90;;;;;;4847133;29;20033;-68
2023/08/30 01:03:43;;;;;;;14.70;2.15;;;15.20;99.90;;;;;;4839234;29;20046;-69
2023/08/30 01:06:29;;;;;;;3.40;1.95;;;15.10;99.90;;;;;;4839992;29;20038;-68
2023/08/30 01:09:16;;;;;;;3.10;2.13;;;15.10;99.90;;;;;;4843017;29;20657;-68
2023/08/30 01:12:43;;;;;;;4.15;1.77;;;15.10;99.90;;;;;;4841798;29;20560;-68
2023/08/30 01:15:30;;;;;;;5.05;2.30;;;15.10;99.90;;;;;;4833876;29;20118;-68
2023/08/30 01:18:19;;;;;;;3.13;2.03;;;15.10;99.90;;;;;;4842283;29;20041;-70
2023/08/30 01:21:17;;;;;;;4.07;2.17;;;15.10;99.90;;;;;;4838435;29;20720;-68
2023/08/30 01:24:07;;;;;;;3.20;2.00;;;15.10;99.90;;;;;;4830582;29;20080;-69
2023/08/30 01:27:10;;;;;;;3.10;2.03;;;15.00;99.90;;;;;;4841736;29;20406;-68
2023/08/30 01:29:58;;;;;;;3.38;1.80;;;15.10;99.90;;;;;;4840776;29;20108;-68
2023/08/30 01:32:46;;;;;;;4.15;1.85;;;15.10;99.90;;;;;;4840870;29;20037;-69
2023/08/30 01:35:36;;;;;;;2.83;1.75;;;15.10;99.90;;;;;;4835714;29;20041;-69
2023/08/30 01:38:25;;;;;;;3.35;2.10;;;15.10;99.90;;;;;;4840591;29;20038;-69
2023/08/30 01:41:11;;;;;;;3.25;2.17;;;15.10;99.90;;;;;;4837945;29;20492;-69
2023/08/30 01:43:59;;;;;;;4.15;2.22;;;15.00;99.90;;;;;;4840454;29;20547;-69
2023/08/30 01:46:46;;;;;;;4.50;2.33;;;15.00;99.90;;;;;;4828120;29;20034;-69
2023/08/30 01:49:33;;;;;;;2.83;1.95;;;15.00;99.90;;;;;;4841001;29;20080;-69
2023/08/30 01:52:20;;;;;;;3.63;2.22;;;15.00;99.90;;;;;;4826457;29;20030;-69
2023/08/30 01:55:09;;;;;;;3.40;1.80;;;14.90;99.90;;;;;;4840318;29;20041;-69
2023/08/30 01:57:55;;;;;;;3.65;1.98;;;14.90;99.90;;;;;;4827132;29;20635;-68
2023/08/30 02:00:41;;;;;;;3.85;2.15;;;15.00;99.90;;;;;;4841692;29;20045;-68
2023/08/30 02:03:27;;;;;;;3.17;2.03;;;14.90;99.90;;;;;;4823615;29;20121;-68
2023/08/30 02:06:24;;;;;;;9.75;2.60;;;14.90;99.90;;;;;;4833412;29;20026;-68
2023/08/30 02:09:21;;;;;;;3.90;2.10;;;15.00;99.90;;;;;;4838217;29;20034;-69
2023/08/30 02:12:13;;;;;;;4.30;2.53;;;14.90;99.90;;;;;;4839985;29;20439;-68
2023/08/30 02:15:01;;;;;;;4.97;2.75;;;15.00;99.90;;;;;;4834815;29;20500;-68
2023/08/30 02:17:49;;;;;;;4.45;2.63;;;14.90;99.90;;;;;;4840654;29;20037;-68
2023/08/30 02:20:35;;;;;;;7.55;2.53;;;14.90;99.90;;;;;;4839945;29;20057;-68
2023/08/30 02:23:25;;;;;;;4.03;2.25;;;14.90;99.90;;;;;;4833145;29;20057;-69
2023/08/30 02:26:11;;;;;;;3.83;2.28;;;14.90;99.90;;;;;;4831479;29;20038;-68
2023/08/30 02:28:57;;;;;;;5.03;2.58;;;14.90;99.90;;;;;;4836974;29;20309;-68
2023/08/30 02:31:43;;;;;;;3.42;2.42;;;14.80;99.90;;;;;;4842746;23;20554;-68
2023/08/30 02:34:29;;;;;;;6.60;2.95;;;14.90;99.90;;;;;;4828842;29;20395;-66
2023/08/30 02:37:16;;;;;;;4.93;2.42;;;14.90;99.90;;;;;;4833376;29;20050;-67
2023/08/30 02:40:02;;;;;;;3.53;2.30;;;14.90;99.90;;;;;;4839466;29;20499;-67
2023/08/30 02:42:48;;;;;;;4.85;2.65;;;14.90;99.90;;;;;;4838127;29;20030;-67
2023/08/30 02:45:34;;;;;;;4.70;2.75;;;15.00;99.90;;;;;;4839960;29;20050;-67
2023/08/30 02:48:20;;;;;;;7.93;2.63;;;15.00;99.90;;;;;;4836430;29;20026;-67
2023/08/30 02:51:06;;;;;;;3.65;1.98;;;15.00;99.90;;;;;;4839869;29;20159;-67
2023/08/30 02:53:52;;;;;;;4.45;2.17;;;14.90;99.90;;;;;;4839663;29;20037;-66
2023/08/30 02:56:38;;;;;;;4.85;2.75;;;14.90;99.90;;;;;;4839049;29;20368;-67
2023/08/30 02:59:24;;;;;;;5.35;2.90;;;15.00;99.90;;;;;;4834912;29;20034;-67
2023/08/30 03:02:10;;;;;;;4.43;2.38;;;15.00;99.90;;;;;;4831339;29;20042;-67
2023/08/30 03:04:56;;;;;;;3.97;2.80;;;15.00;99.90;;;;;;4838963;29;20422;-67
2023/08/30 03:07:42;;;;;;;6.50;3.08;;;15.00;99.90;;;;;;4839590;29;20133;-67
2023/08/30 03:10:28;;;;;;;8.02;3.35;;;14.90;99.90;;;;;;4839508;29;20045;-68
2023/08/30 03:13:14;;;;;;;4.60;2.70;;;15.00;99.90;;;;;;4838117;29;20041;-68
2023/08/30 03:16:00;;;;;;;3.67;2.33;;;14.90;99.90;;;;;;4839390;29;20041;-68
2023/08/30 03:18:47;;;;;;;7.03;3.17;;;14.90;99.90;;;;;;4838021;29;20042;-68
2023/08/30 03:21:34;;;;;;;9.60;3.60;;;14.90;99.90;;;;;;4839060;29;20053;-68
2023/08/30 03:24:20;;;;;;;10.80;3.13;;;14.90;99.90;;;;;;4833931;29;20037;-68
2023/08/30 03:27:06;;;;;;;7.60;3.38;;;14.90;99.90;;;;;;4838990;29;20614;-67
2023/08/30 03:29:55;;;;;;;6.28;3.53;;;14.90;99.90;;;;;;4839396;29;20056;-67
2023/08/30 03:32:41;;;;;;;4.90;3.35;;;14.90;99.90;;;;;;4838571;29;20040;-68
2023/08/30 03:35:27;;;;;;;5.22;3.40;;;14.90;99.90;;;;;;4834636;29;20049;-67
2023/08/30 03:38:14;;;;;;;5.78;3.20;;;14.90;99.90;;;;;;4835158;29;20101;-67
2023/08/30 03:40:59;;;;;;;6.85;3.33;;;14.90;99.90;;;;;;4839547;29;20042;-67
2023/08/30 03:43:45;;;;;;;4.57;3.28;;;14.90;99.90;;;;;;4838004;29;20046;-68
2023/08/30 03:46:31;;;;;;;6.07;3.60;;;14.90;99.90;;;;;;4839126;29;20136;-68
2023/08/30 03:49:17;;;;;;;6.47;3.75;;;14.90;99.90;;;;;;4832867;29;20052;-68
2023/08/30 03:52:04;;;;;;;6.75;4.22;;;14.80;99.90;;;;;;4838459;29;20034;-67
2023/08/30 03:54:50;;;;;;;8.40;4.47;;;14.80;99.90;;;;;;4838888;29;20068;-68
2023/08/30 03:57:36;;;;;;;6.28;2.78;;;14.80;99.90;;;;;;4836866;29;20077;-67
2023/08/30 04:00:22;;;;;;;8.35;3.70;;;14.80;99.90;;;;;;4838219;29;20441;-67
2023/08/30 04:03:09;;;;;;;5.93;4.15;;;14.80;99.90;;;;;;4839286;29;20448;-68
2023/08/30 04:05:59;;;;;;;5.20;3.53;;;14.80;99.90;;;;;;4838527;29;20616;-68
2023/08/30 04:08:45;;;;;;;10.00;4.55;;;14.70;99.90;;;;;;4836665;29;20065;-68
2023/08/30 04:11:31;;;;;;;6.93;3.67;;;14.70;99.90;;;;;;4837162;29;20033;-68
2023/08/30 04:14:17;;;;;;;5.25;3.42;;;14.80;99.90;;;;;;4825607;29;20406;-68
2023/08/30 04:17:03;;;;;;;6.43;3.70;;;14.70;99.90;;;;;;4838851;29;20042;-68
2023/08/30 04:19:53;;;;;;;8.50;4.15;;;14.70;99.90;;;;;;4838217;29;20048;-68
2023/08/30 04:22:39;;;;;;;7.20;3.60;;;14.60;99.90;;;;;;4838173;29;20105;-67
2023/08/30 04:25:25;;;;;;;6.90;3.08;;;14.70;99.90;;;;;;4834256;29;20038;-68
2023/08/30 04:28:11;;;;;;;6.55;3.67;;;14.70;99.90;;;;;;4834992;29;20033;-67
2023/08/30 04:30:57;;;;;;;11.13;3.38;;;14.60;99.90;;;;;;4838952;29;20070;-68
2023/08/30 04:33:43;;;;;;;13.25;4.65;;;14.60;99.90;;;;;;4838097;29;20048;-68
2023/08/30 04:36:29;;;;;;;7.78;4.43;;;14.70;99.90;;;;;;4833656;29;20042;-67
2023/08/30 04:39:15;;;;;;;8.05;4.13;;;14.80;99.90;;;;;;4832146;29;20510;-68
2023/08/30 04:42:02;;;;;;;9.40;4.85;;;14.80;99.90;;;;;;4841946;29;20049;-68
2023/08/30 04:44:48;;;;;;;10.80;5.85;;;14.80;99.90;;;;;;4842723;29;20073;-68
2023/08/30 04:47:34;;;;;;;8.05;4.25;;;14.80;99.90;;;;;;4840756;29;20034;-67
2023/08/30 04:50:20;;;;;;;8.10;3.50;;;14.90;99.90;;;;;;4842450;29;20026;-66
2023/08/30 04:53:06;;;;;;;7.68;4.88;;;14.70;99.90;;;;;;4840589;29;20077;-67
2023/08/30 04:55:53;;;;;;;8.07;4.75;;;14.80;99.90;;;;;;4842319;29;20113;-67
2023/08/30 04:58:39;;;;;;;7.90;4.60;;;14.70;99.90;;;;;;4826426;29;20473;-67
2023/08/30 05:01:25;;;;;;;7.63;4.22;;;14.70;99.90;;;;;;4841995;29;20141;-67
2023/08/30 05:04:11;;;;;;;8.82;4.35;;;14.70;99.90;;;;;;4841873;29;20034;-67
2023/08/30 05:06:57;;;;;;;7.32;4.55;;;14.70;99.90;;;;;;4839785;29;20038;-67
2023/08/30 05:09:43;;;;;;;9.15;4.57;;;14.70;99.90;;;;;;4842056;29;20037;-68
2023/08/30 05:12:30;;;;;;;7.53;3.83;;;14.70;99.90;;;;;;4836261;29;20087;-68
2023/08/30 05:15:16;;;;;;;8.05;4.05;;;14.60;99.90;;;;;;4842310;29;20140;-68
2023/08/30 05:18:02;;;;;;;6.82;4.72;;;14.60;99.90;;;;;;4839627;29;20046;-68
2023/08/30 05:20:48;;;;;;;14.10;5.25;;;14.60;99.90;;;;;;4842095;29;20030;-68
2023/08/30 05:23:34;;;;;;;6.28;4.68;;;14.60;99.90;;;;;;4845566;29;20037;-68
2023/08/30 05:26:20;;;;;;;11.98;4.93;;;14.60;99.90;;;;;;4825359;29;20041;-67
2023/08/30 05:29:06;;;;;;;8.32;4.50;;;14.60;99.90;;;;;;4842039;29;20052;-68
2023/08/30 05:31:52;;;;;;;12.10;4.72;;;14.60;99.90;;;;;;4840817;29;20458;-67
2023/08/30 05:34:38;;;;;;;6.85;4.20;;;14.60;99.90;;;;;;4825626;29;20102;-67
2023/08/30 05:37:24;;;;;;;12.50;5.82;;;14.60;99.90;;;;;;4821668;29;20026;-68
2023/08/30 05:40:15;;;;;;;9.93;4.78;;;14.70;99.90;;;;;;4837994;29;20411;-67
2023/08/30 05:43:01;;;;;;;14.03;3.80;;;14.70;99.90;;;;;;4840615;29;20072;-67
2023/08/30 05:45:47;;;;;;;8.80;4.35;;;14.70;99.90;;;;;;4835399;29;20072;-67
2023/08/30 05:48:33;;;;;;;9.63;4.55;;;14.70;99.90;;;;;;4831738;29;20057;-67
2023/08/30 05:51:20;;;;;;;7.97;4.65;;;14.70;99.90;;;;;;4831480;29;20070;-67
2023/08/30 05:54:06;;;;;;;9.30;4.82;;;14.70;99.90;;;;;;4829605;29;20052;-68
2023/08/30 05:56:52;;;;;;;9.13;4.60;;;14.80;99.90;;;;;;4840867;29;20049;-69
2023/08/30 05:59:38;;;;;;;11.05;5.50;;;14.80;99.90;;;;;;4840348;29;20041;-68
2023/08/30 06:02:24;;;;;;;6.30;3.88;;;14.80;99.90;;;;;;4841676;29;20117;-69
2023/08/30 06:05:10;;;;;;;7.65;4.35;;;14.80;99.90;;;;;;4841233;29;20106;-69
2023/08/30 06:07:57;;;;;;;6.35;3.97;;;15.00;99.90;;;;;;4840720;29;20435;-70
2023/08/30 06:10:43;;;;;;;12.98;4.47;;;15.00;99.90;;;;;;4839842;29;20372;-68
2023/08/30 06:13:29;;;;;;;10.85;5.13;;;15.00;99.90;;;;;;4835508;29;20459;-69
2023/08/30 06:16:15;;;;;;;7.20;4.15;;;15.00;99.90;;;;;;4840296;29;20034;-69
2023/08/30 06:19:01;;;;;;;6.03;3.83;;;15.10;99.90;;;;;;4840392;29;20130;-69
2023/08/30 06:21:47;;;;;;;7.63;4.20;;;15.20;99.90;;;;;;4839812;29;20085;-69
2023/08/30 06:24:32;;;;;;;9.50;4.57;;;15.20;99.90;;;;;;4839616;29;20149;-68
2023/08/30 06:27:18;;;;;;;6.28;4.40;;;15.10;99.90;;;;;;4813129;29;20034;-69
2023/08/30 06:30:05;;;;;;;9.20;4.90;;;15.20;99.90;;;;;;4839799;29;20034;-68
2023/08/30 06:32:51;;;;;;;8.20;4.43;;;15.20;99.90;;;;;;4840641;29;20147;-69
2023/08/30 06:35:41;;;;;;;10.32;4.25;;;15.30;99.90;;;;;;4839782;29;20491;-68
2023/08/30 06:38:27;;;;;;;7.88;4.80;;;15.40;99.90;;;;;;4822850;29;20049;-68
2023/08/30 06:41:13;;;;;;;8.68;4.43;;;15.40;99.90;;;;;;4824503;29;20044;-69
2023/08/30 06:43:59;;;;;;;8.60;4.55;;;15.50;99.90;;;;;;4840923;29;20037;-69
2023/08/30 06:46:45;;;;;;;7.03;4.25;;;15.60;99.90;;;;;;4840160;29;20125;-68
2023/08/30 06:49:31;;;;;;;8.45;4.55;;;15.60;99.90;;;;;;4837001;29;20125;-70
2023/08/30 06:52:17;;;;;;;6.13;3.60;;;15.70;99.90;;;;;;4833017;29;20057;-71
2023/08/30 06:55:04;;;;;;;8.45;4.80;;;15.60;99.90;;;;;;4824366;29;20124;-71
2023/08/30 06:57:50;;;;;;;7.70;4.38;;;15.60;99.90;;;;;;4818214;29;20525;-71
2023/08/30 07:00:36;;;;;;;6.40;3.70;;;15.60;99.90;;;;;;4834812;29;20574;-71
2023/08/30 07:03:22;;;;;;;8.68;4.38;;;15.70;99.90;;;;;;4834558;29;20034;-71
2023/08/30 07:06:08;;;;;;;8.85;4.18;;;15.80;99.90;;;;;;4839136;29;20070;-71
2023/08/30 07:08:54;;;;;;;5.80;2.90;;;15.80;99.90;;;;;;4840103;29;20048;-55
2023/08/30 07:11:46;;;;;;;8.43;4.25;;;16.00;99.90;;;;;;4822476;29;20030;-57
2023/08/30 07:14:32;;;;;;;13.65;3.95;;;16.10;99.90;;;;;;4834910;29;20045;-57
2023/08/30 07:17:18;;;;;;;6.07;2.97;;;16.10;99.90;;;;;;4840290;29;20120;-54
2023/08/30 07:20:08;;;;;;;7.93;3.42;;;16.00;99.90;;;;;;4839942;29;20036;-56
2023/08/30 07:22:54;;;;;;;10.48;3.75;;;16.10;99.90;;;;;;4839921;29;20041;-56
2023/08/30 07:25:40;;;;;;;6.05;3.45;;;16.10;99.90;;;;;;4839764;29;20046;-56
2023/08/30 07:28:26;;;;;;;4.60;2.92;;;16.10;99.90;;;;;;4834178;29;20038;-55
2023/08/30 07:31:15;;;;;;;4.93;3.03;;;16.20;99.90;;;;;;4839007;29;20030;-71
2023/08/30 07:34:01;;;;;;;4.95;3.00;;;16.30;99.90;;;;;;4839005;29;20114;-72
2023/08/30 07:36:47;;;;;;;5.35;3.15;;;16.40;99.90;;;;;;4840168;29;20053;-72
2023/08/30 07:39:34;;;;;;;5.82;3.63;;;16.40;99.90;;;;;;4834331;29;20073;-70
2023/08/30 07:42:20;;;;;;;9.68;3.72;;;16.50;99.90;;;;;;4833282;29;20498;-71
2023/08/30 07:45:07;;;;;;;4.82;2.88;;;16.60;99.90;;;;;;4838646;29;20575;-71
2023/08/30 07:47:53;;;;;;;8.27;4.00;;;16.60;99.90;;;;;;4838713;29;20063;-71
2023/08/30 07:50:39;;;;;;;7.88;3.88;;;16.70;99.90;;;;;;4837694;29;20143;-71
2023/08/30 07:53:25;;;;;;;8.43;4.20;;;16.80;99.90;;;;;;4826057;29;20172;-70
2023/08/30 07:56:11;;;;;;;11.35;3.83;;;17.00;99.90;;;;;;4838211;29;20033;-69
2023/08/30 07:58:58;;;;;;;6.05;3.70;;;16.90;99.90;;;;;;4839178;29;20053;-70
2023/08/30 08:01:44;;;;;;;6.72;4.10;;;17.10;99.90;;;;;;4838072;29;20463;-70
2023/08/30 08:04:30;;;;;;;6.78;3.90;;;17.10;99.90;;;;;;4820420;29;20042;-70
2023/08/30 08:07:16;;;;;;;10.88;3.33;;;17.20;99.90;;;;;;4839552;29;20041;-69
2023/08/30 08:10:03;;;;;;;4.25;2.42;;;17.30;99.90;;;;;;4836283;29;20160;-70
2023/08/30 08:12:49;;;;;;;7.85;3.35;;;17.30;99.90;;;;;;4838835;29;20482;-69
2023/08/30 08:15:35;;;;;;;5.10;3.10;;;17.20;99.90;;;;;;4834145;29;20045;-69
2023/08/30 08:18:21;;;;;;;5.85;3.17;;;17.50;99.90;;;;;;4833895;29;20098;-70
2023/08/30 08:21:07;;;;;;;9.18;3.25;;;17.60;99.90;;;;;;4836885;29;20044;-69
2023/08/30 08:23:53;;;;;;;5.88;2.80;;;17.90;99.90;;;;;;4844428;29;20041;-69
2023/08/30 08:26:39;;;;;;;4.95;2.90;;;17.90;99.90;;;;;;4849800;29;20037;-69
2023/08/30 08:29:30;;;;;;;6.03;3.50;;;17.70;99.90;;;;;;4849222;29;20375;-69
2023/08/30 08:32:16;;;;;;;5.07;2.47;;;17.90;99.90;;;;;;4802912;29;20046;-69
2023/08/30 08:35:02;;;;;;;3.67;2.38;;;18.10;99.90;;;;;;4822839;29;20045;-69
2023/08/30 08:37:49;;;;;;;6.22;3.22;;;18.30;99.90;;;;;;4849364;29;20110;-69
2023/08/30 08:40:41;;;;;;;5.20;3.28;;;18.30;99.90;;;;;;4827106;29;20042;-70
2023/08/30 08:43:29;;;;;;;4.50;2.40;;;18.20;99.90;;;;;;4837414;29;20050;-70
2023/08/30 08:46:17;;;;;;;3.95;2.80;;;18.20;99.90;;;;;;4834866;29;20100;-69
2023/08/30 08:49:13;;;;;;;4.82;2.88;;;18.20;99.90;;;;;;4836278;29;20042;-69
2023/08/30 08:52:00;;;;;;;4.57;3.15;;;18.40;99.90;;;;;;4835088;29;20071;-70
2023/08/30 08:54:46;;;;;;;4.25;2.45;;;18.30;99.90;;;;;;4839199;29;20060;-70
2023/08/30 08:57:32;;;;;;;3.90;2.40;;;18.40;99.90;;;;;;4842396;29;20090;-70
2023/08/30 09:00:18;;;;;;;4.90;2.58;;;18.50;99.90;;;;;;4830209;29;20041;-70
2023/08/30 09:03:06;;;;;;;4.70;2.65;;;18.60;99.90;;;;;;4821859;29;20133;-70
2023/08/30 09:05:52;;;;;;;4.35;2.38;;;18.40;99.90;;;;;;4832149;29;20037;-71
2023/08/30 09:08:38;;;;;;;3.75;2.42;;;18.30;99.90;;;;;;4837216;29;20038;-71
2023/08/30 09:11:24;;;;;;;4.72;2.47;;;18.60;99.90;;;;;;4832222;29;20030;-70
2023/08/30 09:14:10;;;;;;;3.58;2.40;;;18.80;99.90;;;;;;4836405;29;20030;-71
2023/08/30 09:17:02;;;;;;;3.38;2.05;;;19.00;99.90;;;;;;4838153;29;20459;-71
2023/08/30 09:19:48;;;;;;;5.18;2.50;;;18.70;99.90;;;;;;4835324;29;20030;-70
2023/08/30 09:22:42;;;;;;;6.85;2.40;;;18.80;99.90;;;;;;4834331;29;20042;-70
2023/08/30 09:25:29;;;;;;;4.57;2.30;;;18.80;99.90;;;;;;4838568;29;20034;-70
2023/08/30 09:28:15;;;;;;;3.78;2.40;;;18.70;99.90;;;;;;4822637;29;20041;-70
2023/08/30 09:31:01;;;;;;;6.28;2.10;;;18.60;99.90;;;;;;4840094;29;20046;-70
2023/08/30 09:33:50;;;;;;;4.28;2.30;;;18.90;99.90;;;;;;4836033;29;20379;-70
2023/08/30 09:36:37;;;;;;;5.30;2.45;;;18.80;99.90;;;;;;4836290;29;20037;-70
2023/08/30 09:39:23;;;;;;;3.40;2.35;;;18.80;99.90;;;;;;4834460;29;20034;-70
2023/08/30 09:42:09;;;;;;;3.42;2.20;;;19.10;99.90;;;;;;4834479;29;20308;-70
2023/08/30 09:44:57;;;;;;;4.60;2.50;;;19.20;99.90;;;;;;4840292;29;20054;-70
2023/08/30 09:47:50;;;;;;;3.75;2.10;;;19.50;99.90;;;;;;4838533;29;20098;-70
2023/08/30 09:50:36;;;;;;;4.00;1.88;;;19.60;99.90;;;;;;4840848;29;20038;-69
2023/08/30 09:53:27;;;;;;;3.15;1.73;;;19.70;99.90;;;;;;4840318;29;20030;-69
2023/08/30 09:56:15;;;;;;;7.50;2.20;;;19.80;99.90;;;;;;4833088;29;20091;-71
2023/08/30 09:59:03;;;;;;;4.85;2.20;;;20.10;99.90;;;;;;4840458;29;20045;-70
2023/08/30 10:01:50;;;;;;;6.35;2.10;;;20.10;99.90;;;;;;4840017;29;20042;-70
2023/08/30 10:04:41;;;;;;;5.68;2.22;;;20.30;99.90;;;;;;4827301;29;20046;-71
2023/08/30 10:07:28;;;;;;;3.80;2.00;;;20.40;99.90;;;;;;4833140;29;20041;-70
2023/08/30 10:10:14;;;;;;;2.65;1.75;;;20.00;99.90;;;;;;4826736;29;20542;-69
2023/08/30 10:13:02;;;;;;;2.80;1.52;;;20.10;99.90;;;;;;4826550;29;20497;-70
2023/08/30 10:15:52;;;;;;;3.33;1.33;;;20.50;99.90;;;;;;4834967;29;20050;-70
2023/08/30 10:18:39;;;;;;;;;;;20.50;99.90;;;;;;4827483;29;20160;-70
2023/08/30 10:21:27;;;;;;;2.35;1.40;;;20.20;99.90;;;;;;4838335;29;20007;-70
2023/08/30 10:24:20;;;;;;;4.63;2.10;;;20.60;99.90;;;;;;4840266;29;20403;-71
2023/08/30 10:27:08;;;;;;;2.38;1.38;;;20.90;99.90;;;;;;4838849;29;20038;-71
2023/08/30 10:29:55;;;;;;;2.58;1.80;;;20.80;99.90;;;;;;4840080;29;20050;-70
2023/08/30 10:32:43;;;;;;;3.72;1.63;;;20.80;99.90;;;;;;4822484;29;20054;-69
2023/08/30 10:35:29;;;;;;;2.85;1.70;;;20.70;99.90;;;;;;4833966;29;20052;-68
2023/08/30 10:38:28;;;;;;;2.72;1.67;;;20.40;99.90;;;;;;4825824;29;20467;-70
2023/08/30 10:41:29;;;;;;;2.70;1.55;;;20.50;99.90;;;;;;4826057;29;20029;-68
2023/08/30 10:44:21;;;;;;;2.30;1.30;;;20.30;99.90;;;;;;4833022;29;20111;-71
2023/08/30 10:47:07;;;;;;;3.17;1.55;;;20.80;99.90;;;;;;4839029;29;20179;-71
2023/08/30 10:49:58;;;;;;;3.63;1.45;;;20.80;99.90;;;;;;4840896;29;20045;-70
2023/08/30 10:52:54;;;;;;;;;;;21.20;99.90;;;;;;4836872;29;20041;-71
2023/08/30 10:55:40;;;;;;;2.63;1.20;;;21.10;99.90;;;;;;4823483;29;19920;-70
2023/08/30 10:58:26;;;;;;;2.10;1.00;;;21.30;99.90;;;;;;4826169;29;20064;-70
2023/08/30 11:01:14;;;;;;;2.42;1.33;;;21.00;99.90;;;;;;4825162;29;20380;-70
2023/08/30 11:04:00;;;;;;;3.45;1.63;;;21.50;99.90;;;;;;4826875;29;20431;-70
2023/08/30 11:06:48;;;;;;;7.18;1.77;;;21.60;99.90;;;;;;4839549;29;20129;-70
2023/08/30 11:09:39;;;;;;;2.58;1.50;;;21.90;99.90;;;;;;4826452;29;20038;-70
2023/08/30 11:12:25;;;;;;;1.65;1.00;;;21.70;99.90;;;;;;4833690;29;20094;-71
2023/08/30 11:15:14;;;;;;;2.58;1.25;;;22.30;99.90;;;;;;4824945;29;20049;-70
2023/08/30 11:18:04;;;;;;;2.45;1.30;;;22.10;99.90;;;;;;4824715;29;20038;-70
2023/08/30 11:21:01;;;;;;;2.38;1.60;;;22.30;99.90;;;;;;4837868;29;20034;-70
2023/08/30 11:23:47;;;;;;;1.98;1.10;;;22.20;99.90;;;;;;4839296;29;20045;-70
2023/08/30 11:26:34;;;;;;;1.70;1.10;;;21.90;99.90;;;;;;4827594;29;20117;-70
2023/08/30 11:29:20;;;;;;;2.17;1.40;;;22.40;99.90;;;;;;4832633;29;20072;-70
2023/08/30 11:32:07;;;;;;;1.95;1.05;;;22.60;99.90;;;;;;4819560;29;20050;-70
2023/08/30 11:34:58;;;;;;;3.03;1.40;;;22.40;99.90;;;;;;4838975;29;20038;-69
2023/08/30 11:37:44;;;;;;;2.17;1.57;;;22.40;99.90;;;;;;4836713;29;20135;-69
2023/08/30 11:40:32;;;;;;;1.33;1.00;;;22.60;99.90;;;;;;4824406;29;20486;-69
2023/08/30 11:43:19;;;;;;;1.98;1.00;;;22.40;99.90;;;;;;4807820;29;20045;-69
2023/08/30 11:46:05;;;;;;;2.45;1.30;;;22.50;99.90;;;;;;4838260;29;20517;-69
2023/08/30 11:48:52;;;;;;;2.40;1.45;;;22.90;99.90;;;;;;4838051;29;20521;-69
2023/08/30 11:51:38;;;;;;;1.38;0.93;;;23.00;99.90;;;;;;4819873;29;20042;-69
2023/08/30 11:54:25;;;;;;;2.83;1.30;;;23.20;99.90;;;;;;4831868;29;20040;-69
2023/08/30 11:57:11;;;;;;;3.72;1.30;;;22.90;99.90;;;;;;4819118;29;20106;-69
2023/08/30 12:00:11;;;;;;;1.70;0.88;;;23.20;99.90;;;;;;4837562;29;20038;-69
2023/08/30 12:02:57;;;;;;;1.70;1.15;;;23.50;99.90;;;;;;4836640;29;20034;-69
2023/08/30 12:05:50;;;;;;;2.28;1.27;;;24.00;99.90;;;;;;4824983;29;20047;-69
2023/08/30 12:08:36;;;;;;;1.38;0.93;;;24.10;97.60;;;;;;4808629;29;20102;-69
2023/08/30 12:11:22;;;;;;;1.77;0.90;;;23.90;97.70;;;;;;4826490;29;20117;-70
2023/08/30 12:14:08;;;;;;;1.45;0.95;;;23.80;99.90;;;;;;4838605;29;20072;-70
2023/08/30 12:16:54;;;;;;;1.98;0.98;;;23.80;96.30;;;;;;4818780;29;20460;-70
2023/08/30 12:19:40;;;;;;;3.15;0.80;;;23.60;96.80;;;;;;4838676;29;20036;-70
2023/08/30 12:22:39;;;;;;;1.48;0.80;;;23.50;97.80;;;;;;4839110;29;20400;-70
2023/08/30 12:25:26;;;;;;;2.05;0.80;;;24.00;99.40;;;;;;4831691;29;20042;-70
2023/08/30 12:28:12;;;;;;;1.33;0.90;;;24.10;96.50;;;;;;4838649;29;20109;-70
2023/08/30 12:30:59;;;;;;;1.73;0.90;;;24.30;96.30;;;;;;4832199;29;20042;-70
2023/08/30 12:33:45;;;;;;;1.58;0.90;;;24.10;97.50;;;;;;4838367;29;20402;-70
2023/08/30 12:36:31;;;;;;;2.17;1.10;;;23.90;98.50;;;;;;4827302;29;20538;-70
2023/08/30 12:39:17;;;;;;;2.30;1.23;;;24.00;97.70;;;;;;4837895;29;20033;-70
2023/08/30 12:42:04;;;;;;;1.35;0.93;;;23.90;97.70;;;;;;4836232;29;20037;-70
2023/08/30 12:44:50;;;;;;;1.35;0.90;;;23.90;98.70;;;;;;4837626;29;20102;-70
2023/08/30 12:47:36;;;;;;;1.52;0.90;;;24.30;96.80;;;;;;4833730;29;20094;-70
2023/08/30 12:50:22;;;;;;;1.50;0.57;;;23.50;94.40;;;;;;4827888;29;20037;-69
2023/08/30 12:53:08;;;;;;;1.20;0.68;;;23.40;95.30;;;;;;4838489;29;20053;-69
2023/08/30 12:55:54;;;;;;;0.88;0.52;;;23.50;96.10;;;;;;4821937;29;20084;-69
2023/08/30 12:58:40;;;;;;;2.25;1.08;;;24.00;94.00;;;;;;4838295;29;20169;-69
2023/08/30 13:01:26;;;;;;;2.70;0.90;;;24.60;91.80;;;;;;4833591;29;20434;-69
2023/08/30 13:04:12;;;;;;;2.00;0.80;;;24.80;90.90;;;;;;4838101;29;20030;-69
2023/08/30 13:06:58;;;;;;;2.17;0.70;;;24.40;91.80;;;;;;4840756;29;20157;-69
2023/08/30 13:09:44;;;;;;;1.75;0.88;;;25.30;90.30;;;;;;4840586;29;20041;-76
2023/08/30 13:12:30;;;;;;;2.45;0.80;;;25.90;87.00;;;;;;4840629;29;20037;-68
2023/08/30 13:15:16;;;;;;;1.88;0.80;;;25.30;87.30;;;;;;4841437;29;20107;-69
2023/08/30 13:18:03;;;;;;;5.10;0.70;;;24.70;89.40;;;;;;4838984;29;20042;-69
2023/08/30 13:20:49;;;;;;;1.45;0.63;;;24.40;91.30;;;;;;4841248;29;20048;-70
2023/08/30 13:23:36;;;;;;;1.25;0.80;;;24.40;90.30;;;;;;4836723;29;20145;-69
2023/08/30 13:26:22;;;;;;;1.55;0.70;;;24.40;90.50;;;;;;4831393;29;20038;-69
2023/08/30 13:29:08;;;;;;;1.70;0.88;;;25.20;90.60;;;;;;4841653;29;20038;-69
2023/08/30 13:31:54;;;;;;;2.50;0.60;;;25.10;85.20;;;;;;4841268;29;20483;-76
2023/08/30 13:34:43;;;;;;;1.55;0.70;;;25.90;84.60;;;;;;4840488;29;20083;-69
2023/08/30 13:37:29;;;;;;;1.88;0.80;;;25.80;80.20;;;;;;4835069;29;20398;-69
2023/08/30 13:40:15;;;;;;;1.48;0.65;;;26.50;74.10;;;;;;4841521;29;20384;-70
2023/08/30 13:43:03;;;;;;;3.00;1.00;;;26.90;75.50;;;;;;4826338;29;20049;-70
2023/08/30 13:45:58;;;;;;;2.05;0.77;;;25.60;74.90;;;;;;4840560;29;20025;-70
2023/08/30 13:48:47;;;;;;;1.65;0.55;;;26.00;77.40;;;;;;4837563;29;20575;-68
2023/08/30 13:51:33;;;;;;;5.13;0.68;;;26.80;72.80;;;;;;4824038;29;20053;-70
2023/08/30 13:54:19;;;;;;;1.35;0.60;;;27.20;71.80;;;;;;4833138;29;20038;-70
2023/08/30 13:57:05;;;;;;;1.00;0.55;;;26.80;71.10;;;;;;4838065;29;20694;-69
2023/08/30 13:59:51;;;;;;;2.90;0.80;;;27.30;72.40;;;;;;4838401;29;20059;-70
2023/08/30 14:02:37;;;;;;;1.10;0.60;;;27.10;74.50;;;;;;4837099;29;20041;-70
2023/08/30 14:05:23;;;;;;;1.85;0.85;;;25.60;73.90;;;;;;4841234;29;20041;-69
2023/08/30 14:08:09;;;;;;;1.15;0.60;;;25.20;77.70;;;;;;4840033;29;20402;-70
2023/08/30 14:10:55;;;;;;;0.85;0.57;;;25.50;76.70;;;;;;4840286;29;20041;-69
2023/08/30 14:13:41;;;;;;;1.67;0.75;;;24.90;73.40;;;;;;4839996;29;20508;-69
2023/08/30 14:16:27;;;;;;;1.13;0.73;;;25.10;71.50;;;;;;4826535;29;20037;-70
2023/08/30 14:19:15;;;;;;;1.40;0.70;;;24.80;72.50;;;;;;4840135;29;20030;-68
2023/08/30 14:22:03;;;;;;;2.50;1.15;;;24.40;75.00;;;;;;4827019;29;20099;-69
2023/08/30 14:24:49;;;;;;;1.17;0.65;;;23.90;75.90;;;;;;4827163;29;20049;-69
2023/08/30 14:27:35;;;;;;;2.15;0.60;;;24.00;77.40;;;;;;4836444;29;20061;-56
2023/08/30 14:30:22;;;;;;;1.70;0.88;;;23.90;76.70;;;;;;4840033;29;20449;-69